sensor_id;sensor_type;location;lat;lon;timestamp;temperature;humidity
21108;DHT22;10712;52.944;9.098;2023-08-20T00:00:28;20.00;90.90
21108;DHT22;10712;52.944;9.098;2023-08-20T00:02:59;20.00;91.00
21108;DHT22;10712;52.944;9.098;2023-08-20T00:05:30;19.90;91.20
21108;DHT22;10712;52.944;9.098;2023-08-20T00:07:56;19.90;91.10
21108;DHT22;10712;52.944;9.098;2023-08-20T00:10:22;19.90;91.10
21108;DHT22;10712;52.944;9.098;2023-08-20T00:12:48;19.80;90.90
21108;DHT22;10712;52.944;9.098;2023-08-20T00:15:14;19.80;90.90
21108;DHT22;10712;52.944;9.098;2023-08-20T00:17:40;19.70;90.80
21108;DHT22;10712;52.944;9.098;2023-08-20T00:20:10;19.70;90.80
21108;DHT22;10712;52.944;9.098;2023-08-20T00:22:39;19.60;90.80
21108;DHT22;10712;52.944;9.098;2023-08-20T00:25:06;19.50;90.50
21108;DHT22;10712;52.944;9.098;2023-08-20T00:27:33;19.50;90.50
21108;DHT22;10712;52.944;9.098;2023-08-20T00:29:59;19.50;90.40
21108;DHT22;10712;52.944;9.098;2023-08-20T00:32:24;19.40;90.40
21108;DHT22;10712;52.944;9.098;2023-08-20T00:34:50;19.40;90.20
21108;DHT22;10712;52.944;9.098;2023-08-20T00:37:16;19.30;90.20
21108;DHT22;10712;52.944;9.098;2023-08-20T00:39:42;19.30;90.10
21108;DHT22;10712;52.944;9.098;2023-08-20T00:42:08;19.20;90.20
21108;DHT22;10712;52.944;9.098;2023-08-20T00:44:35;19.20;89.90
21108;DHT22;10712;52.944;9.098;2023-08-20T00:47:01;19.10;90.00
21108;DHT22;10712;52.944;9.098;2023-08-20T00:49:30;19.10;89.80
21108;DHT22;10712;52.944;9.098;2023-08-20T00:51:58;19.00;89.70
21108;DHT22;10712;52.944;9.098;2023-08-20T00:54:25;19.00;89.70
21108;DHT22;10712;52.944;9.098;2023-08-20T00:56:53;18.90;89.60
21108;DHT22;10712;52.944;9.098;2023-08-20T00:59:20;18.90;89.60
21108;DHT22;10712;52.944;9.098;2023-08-20T01:01:46;18.80;89.70
21108;DHT22;10712;52.944;9.098;2023-08-20T01:04:12;18.80;89.70
21108;DHT22;10712;52.944;9.098;2023-08-20T01:12:14;18.70;89.60
21108;DHT22;10712;52.944;9.098;2023-08-20T01:14:42;18.70;89.70
21108;DHT22;10712;52.944;9.098;2023-08-20T01:17:08;18.70;89.60
21108;DHT22;10712;52.944;9.098;2023-08-20T01:19:34;18.60;89.70
21108;DHT22;10712;52.944;9.098;2023-08-20T01:28:27;18.60;90.00
21108;DHT22;10712;52.944;9.098;2023-08-20T01:30:56;18.60;89.90
21108;DHT22;10712;52.944;9.098;2023-08-20T01:33:24;18.50;89.70
21108;DHT22;10712;52.944;9.098;2023-08-20T01:35:52;18.50;89.70
21108;DHT22;10712;52.944;9.098;2023-08-20T01:38:19;18.40;89.40
21108;DHT22;10712;52.944;9.098;2023-08-20T01:40:46;18.40;89.40
21108;DHT22;10712;52.944;9.098;2023-08-20T01:43:14;18.30;89.50
21108;DHT22;10712;52.944;9.098;2023-08-20T01:45:41;18.30;89.70
21108;DHT22;10712;52.944;9.098;2023-08-20T01:48:07;18.30;89.10
21108;DHT22;10712;52.944;9.098;2023-08-20T01:50:34;18.20;89.20
21108;DHT22;10712;52.944;9.098;2023-08-20T01:53:02;18.10;89.70
21108;DHT22;10712;52.944;9.098;2023-08-20T01:55:29;18.10;90.00
21108;DHT22;10712;52.944;9.098;2023-08-20T01:57:54;18.10;90.30
21108;DHT22;10712;52.944;9.098;2023-08-20T02:00:20;18.10;90.20
21108;DHT22;10712;52.944;9.098;2023-08-20T02:02:46;18.10;90.20
21108;DHT22;10712;52.944;9.098;2023-08-20T02:05:12;18.10;89.90
21108;DHT22;10712;52.944;9.098;2023-08-20T02:07:38;18.00;89.80
21108;DHT22;10712;52.944;9.098;2023-08-20T02:10:04;18.00;89.70
21108;DHT22;10712;52.944;9.098;2023-08-20T02:12:30;18.00;89.70
21108;DHT22;10712;52.944;9.098;2023-08-20T02:14:56;18.00;89.80
21108;DHT22;10712;52.944;9.098;2023-08-20T02:17:22;17.90;89.80
21108;DHT22;10712;52.944;9.098;2023-08-20T02:19:49;17.90;89.50
21108;DHT22;10712;52.944;9.098;2023-08-20T02:22:15;17.80;89.00
21108;DHT22;10712;52.944;9.098;2023-08-20T02:24:42;17.70;88.90
21108;DHT22;10712;52.944;9.098;2023-08-20T02:27:08;17.60;89.50
21108;DHT22;10712;52.944;9.098;2023-08-20T02:29:34;17.50;90.00
21108;DHT22;10712;52.944;9.098;2023-08-20T02:31:59;17.50;90.10
21108;DHT22;10712;52.944;9.098;2023-08-20T02:34:25;17.50;90.10
21108;DHT22;10712;52.944;9.098;2023-08-20T02:36:51;17.50;89.90
21108;DHT22;10712;52.944;9.098;2023-08-20T02:39:17;17.40;90.10
21108;DHT22;10712;52.944;9.098;2023-08-20T02:41:43;17.40;90.20
21108;DHT22;10712;52.944;9.098;2023-08-20T02:44:09;17.50;90.10
21108;DHT22;10712;52.944;9.098;2023-08-20T02:46:35;17.50;90.10
21108;DHT22;10712;52.944;9.098;2023-08-20T02:49:00;17.40;89.90
21108;DHT22;10712;52.944;9.098;2023-08-20T02:51:27;17.40;89.90
21108;DHT22;10712;52.944;9.098;2023-08-20T02:53:53;17.40;90.00
21108;DHT22;10712;52.944;9.098;2023-08-20T02:56:19;17.40;90.00
21108;DHT22;10712;52.944;9.098;2023-08-20T02:58:45;17.40;90.00
21108;DHT22;10712;52.944;9.098;2023-08-20T03:01:21;17.40;90.00
21108;DHT22;10712;52.944;9.098;2023-08-20T03:03:49;17.40;90.00
21108;DHT22;10712;52.944;9.098;2023-08-20T03:06:15;17.40;89.90
21108;DHT22;10712;52.944;9.098;2023-08-20T03:08:41;17.40;89.80
21108;DHT22;10712;52.944;9.098;2023-08-20T03:11:06;17.40;89.80
21108;DHT22;10712;52.944;9.098;2023-08-20T03:13:33;17.40;89.70
21108;DHT22;10712;52.944;9.098;2023-08-20T03:15:58;17.30;89.70
21108;DHT22;10712;52.944;9.098;2023-08-20T03:18:24;17.30;89.40
21108;DHT22;10712;52.944;9.098;2023-08-20T03:20:50;17.20;89.30
21108;DHT22;10712;52.944;9.098;2023-08-20T03:23:16;17.20;88.80
21108;DHT22;10712;52.944;9.098;2023-08-20T03:25:42;17.10;88.60
21108;DHT22;10712;52.944;9.098;2023-08-20T03:28:07;17.00;89.10
21108;DHT22;10712;52.944;9.098;2023-08-20T03:30:36;16.90;89.30
21108;DHT22;10712;52.944;9.098;2023-08-20T03:33:02;16.90;89.50
21108;DHT22;10712;52.944;9.098;2023-08-20T03:35:30;16.90;89.60
21108;DHT22;10712;52.944;9.098;2023-08-20T03:37:57;16.90;89.40
21108;DHT22;10712;52.944;9.098;2023-08-20T03:40:23;16.90;89.00
21108;DHT22;10712;52.944;9.098;2023-08-20T03:42:49;16.80;88.90
21108;DHT22;10712;52.944;9.098;2023-08-20T03:45:16;16.70;89.00
21108;DHT22;10712;52.944;9.098;2023-08-20T03:47:42;16.60;89.20
21108;DHT22;10712;52.944;9.098;2023-08-20T03:50:09;16.60;89.20
21108;DHT22;10712;52.944;9.098;2023-08-20T03:52:35;16.50;89.30
21108;DHT22;10712;52.944;9.098;2023-08-20T03:55:02;16.50;89.10
21108;DHT22;10712;52.944;9.098;2023-08-20T03:57:28;16.40;89.10
21108;DHT22;10712;52.944;9.098;2023-08-20T03:59:54;16.30;89.20
21108;DHT22;10712;52.944;9.098;2023-08-20T04:02:20;16.30;89.40
21108;DHT22;10712;52.944;9.098;2023-08-20T04:04:45;16.30;89.80
21108;DHT22;10712;52.944;9.098;2023-08-20T04:07:12;16.30;90.00
21108;DHT22;10712;52.944;9.098;2023-08-20T04:09:38;16.40;90.10
21108;DHT22;10712;52.944;9.098;2023-08-20T04:12:05;16.40;90.10
21108;DHT22;10712;52.944;9.098;2023-08-20T04:14:31;16.40;90.00
21108;DHT22;10712;52.944;9.098;2023-08-20T04:16:57;16.40;89.90
21108;DHT22;10712;52.944;9.098;2023-08-20T04:19:23;16.40;90.10
21108;DHT22;10712;52.944;9.098;2023-08-20T04:21:49;16.50;90.20
21108;DHT22;10712;52.944;9.098;2023-08-20T04:24:16;16.50;90.30
21108;DHT22;10712;52.944;9.098;2023-08-20T04:26:43;16.50;90.30
21108;DHT22;10712;52.944;9.098;2023-08-20T04:29:09;16.50;90.30
21108;DHT22;10712;52.944;9.098;2023-08-20T04:31:35;16.50;90.10
21108;DHT22;10712;52.944;9.098;2023-08-20T04:34:06;16.50;90.10
21108;DHT22;10712;52.944;9.098;2023-08-20T04:36:45;16.40;90.40
21108;DHT22;10712;52.944;9.098;2023-08-20T04:39:11;16.40;90.70
21108;DHT22;10712;52.944;9.098;2023-08-20T04:41:42;16.40;90.80
21108;DHT22;10712;52.944;9.098;2023-08-20T04:44:12;16.40;91.00
21108;DHT22;10712;52.944;9.098;2023-08-20T04:46:38;16.40;91.10
21108;DHT22;10712;52.944;9.098;2023-08-20T04:49:04;16.40;91.10
21108;DHT22;10712;52.944;9.098;2023-08-20T04:51:30;16.40;91.10
21108;DHT22;10712;52.944;9.098;2023-08-20T04:53:56;16.40;91.20
21108;DHT22;10712;52.944;9.098;2023-08-20T04:56:22;16.50;91.30
21108;DHT22;10712;52.944;9.098;2023-08-20T04:58:48;16.50;91.20
21108;DHT22;10712;52.944;9.098;2023-08-20T05:01:29;16.50;91.30
21108;DHT22;10712;52.944;9.098;2023-08-20T05:03:55;16.50;91.00
21108;DHT22;10712;52.944;9.098;2023-08-20T05:06:20;16.50;90.90
21108;DHT22;10712;52.944;9.098;2023-08-20T05:08:46;16.50;91.00
21108;DHT22;10712;52.944;9.098;2023-08-20T05:11:12;16.40;90.80
21108;DHT22;10712;52.944;9.098;2023-08-20T05:13:38;16.40;90.80
21108;DHT22;10712;52.944;9.098;2023-08-20T05:16:04;16.30;91.00
21108;DHT22;10712;52.944;9.098;2023-08-20T05:18:30;16.30;91.30
21108;DHT22;10712;52.944;9.098;2023-08-20T05:20:56;16.30;91.50
21108;DHT22;10712;52.944;9.098;2023-08-20T05:23:22;16.30;91.50
21108;DHT22;10712;52.944;9.098;2023-08-20T05:25:47;16.30;91.70
21108;DHT22;10712;52.944;9.098;2023-08-20T05:28:13;16.30;91.90
21108;DHT22;10712;52.944;9.098;2023-08-20T05:30:39;16.30;92.30
21108;DHT22;10712;52.944;9.098;2023-08-20T05:33:05;16.30;92.50
21108;DHT22;10712;52.944;9.098;2023-08-20T05:35:35;16.40;92.80
21108;DHT22;10712;52.944;9.098;2023-08-20T05:38:02;16.40;93.00
21108;DHT22;10712;52.944;9.098;2023-08-20T05:40:28;16.50;93.00
21108;DHT22;10712;52.944;9.098;2023-08-20T05:42:54;16.60;93.10
21108;DHT22;10712;52.944;9.098;2023-08-20T05:45:19;16.60;93.20
21108;DHT22;10712;52.944;9.098;2023-08-20T05:47:46;16.70;93.30
21108;DHT22;10712;52.944;9.098;2023-08-20T05:50:12;16.70;93.40
21108;DHT22;10712;52.944;9.098;2023-08-20T05:52:39;16.80;93.40
21108;DHT22;10712;52.944;9.098;2023-08-20T05:55:05;16.80;93.50
21108;DHT22;10712;52.944;9.098;2023-08-20T05:57:32;16.90;93.60
21108;DHT22;10712;52.944;9.098;2023-08-20T05:59:58;16.90;93.50
21108;DHT22;10712;52.944;9.098;2023-08-20T06:02:24;17.00;93.40
21108;DHT22;10712;52.944;9.098;2023-08-20T06:04:50;17.00;93.40
21108;DHT22;10712;52.944;9.098;2023-08-20T06:07:16;17.10;93.60
21108;DHT22;10712;52.944;9.098;2023-08-20T06:09:42;17.10;93.50
21108;DHT22;10712;52.944;9.098;2023-08-20T06:12:08;17.10;93.50
21108;DHT22;10712;52.944;9.098;2023-08-20T06:14:33;17.20;93.50
21108;DHT22;10712;52.944;9.098;2023-08-20T06:16:59;17.20;93.50
21108;DHT22;10712;52.944;9.098;2023-08-20T06:19:25;17.30;93.50
21108;DHT22;10712;52.944;9.098;2023-08-20T06:21:51;17.30;93.70
21108;DHT22;10712;52.944;9.098;2023-08-20T06:24:18;17.40;93.60
21108;DHT22;10712;52.944;9.098;2023-08-20T06:26:43;17.50;93.60
21108;DHT22;10712;52.944;9.098;2023-08-20T06:29:10;17.50;93.60
21108;DHT22;10712;52.944;9.098;2023-08-20T06:31:36;17.60;93.60
21108;DHT22;10712;52.944;9.098;2023-08-20T06:34:02;17.60;93.70
21108;DHT22;10712;52.944;9.098;2023-08-20T06:36:27;17.70;93.80
21108;DHT22;10712;52.944;9.098;2023-08-20T06:38:53;17.80;93.80
21108;DHT22;10712;52.944;9.098;2023-08-20T06:41:19;17.80;93.70
21108;DHT22;10712;52.944;9.098;2023-08-20T06:43:45;17.90;93.60
21108;DHT22;10712;52.944;9.098;2023-08-20T06:46:11;18.00;93.60
21108;DHT22;10712;52.944;9.098;2023-08-20T06:48:37;18.00;93.50
21108;DHT22;10712;52.944;9.098;2023-08-20T06:51:12;18.10;93.50
21108;DHT22;10712;52.944;9.098;2023-08-20T06:53:39;18.10;93.40
21108;DHT22;10712;52.944;9.098;2023-08-20T06:56:08;18.20;93.50
21108;DHT22;10712;52.944;9.098;2023-08-20T06:58:35;18.20;93.40
21108;DHT22;10712;52.944;9.098;2023-08-20T07:01:01;18.30;93.40
21108;DHT22;10712;52.944;9.098;2023-08-20T07:03:39;18.40;93.30
21108;DHT22;10712;52.944;9.098;2023-08-20T07:06:06;18.50;93.20
21108;DHT22;10712;52.944;9.098;2023-08-20T07:08:35;18.50;93.10
21108;DHT22;10712;52.944;9.098;2023-08-20T07:11:01;18.60;93.10
21108;DHT22;10712;52.944;9.098;2023-08-20T07:13:26;18.70;93.10
21108;DHT22;10712;52.944;9.098;2023-08-20T07:15:52;18.80;93.00
21108;DHT22;10712;52.944;9.098;2023-08-20T07:18:18;18.80;92.90
21108;DHT22;10712;52.944;9.098;2023-08-20T07:20:44;18.90;92.70
21108;DHT22;10712;52.944;9.098;2023-08-20T07:23:11;18.90;92.70
21108;DHT22;10712;52.944;9.098;2023-08-20T07:25:38;19.00;92.60
21108;DHT22;10712;52.944;9.098;2023-08-20T07:28:05;19.00;92.60
21108;DHT22;10712;52.944;9.098;2023-08-20T07:30:32;19.10;92.60
21108;DHT22;10712;52.944;9.098;2023-08-20T07:32:58;19.20;92.40
21108;DHT22;10712;52.944;9.098;2023-08-20T07:35:24;19.20;92.40
21108;DHT22;10712;52.944;9.098;2023-08-20T07:37:50;19.30;92.00
21108;DHT22;10712;52.944;9.098;2023-08-20T07:40:16;19.30;91.80
21108;DHT22;10712;52.944;9.098;2023-08-20T07:42:42;19.40;91.60
21108;DHT22;10712;52.944;9.098;2023-08-20T07:45:09;19.50;91.40
21108;DHT22;10712;52.944;9.098;2023-08-20T07:47:39;19.50;91.20
21108;DHT22;10712;52.944;9.098;2023-08-20T07:50:05;19.60;91.20
21108;DHT22;10712;52.944;9.098;2023-08-20T07:52:32;19.70;91.20
21108;DHT22;10712;52.944;9.098;2023-08-20T07:54:58;19.80;91.10
21108;DHT22;10712;52.944;9.098;2023-08-20T07:57:24;19.90;90.90
21108;DHT22;10712;52.944;9.098;2023-08-20T07:59:50;19.90;90.80
21108;DHT22;10712;52.944;9.098;2023-08-20T08:02:16;20.00;90.70
21108;DHT22;10712;52.944;9.098;2023-08-20T08:04:43;20.10;90.60
21108;DHT22;10712;52.944;9.098;2023-08-20T08:07:10;20.10;90.40
21108;DHT22;10712;52.944;9.098;2023-08-20T08:09:36;20.20;89.60
21108;DHT22;10712;52.944;9.098;2023-08-20T08:12:03;20.20;89.00
21108;DHT22;10712;52.944;9.098;2023-08-20T08:14:30;20.30;88.70
21108;DHT22;10712;52.944;9.098;2023-08-20T08:16:56;20.40;88.30
21108;DHT22;10712;52.944;9.098;2023-08-20T08:19:22;20.40;87.70
21108;DHT22;10712;52.944;9.098;2023-08-20T08:21:48;20.50;87.10
21108;DHT22;10712;52.944;9.098;2023-08-20T08:24:15;20.60;86.80
21108;DHT22;10712;52.944;9.098;2023-08-20T08:26:41;20.70;86.60
21108;DHT22;10712;52.944;9.098;2023-08-20T08:29:08;20.80;86.40
21108;DHT22;10712;52.944;9.098;2023-08-20T08:31:34;20.80;86.30
21108;DHT22;10712;52.944;9.098;2023-08-20T08:34:01;20.90;85.80
21108;DHT22;10712;52.944;9.098;2023-08-20T08:36:28;21.00;85.40
21108;DHT22;10712;52.944;9.098;2023-08-20T08:38:54;21.10;85.20
21108;DHT22;10712;52.944;9.098;2023-08-20T08:41:22;21.20;85.30
21108;DHT22;10712;52.944;9.098;2023-08-20T08:43:51;21.30;85.00
21108;DHT22;10712;52.944;9.098;2023-08-20T08:46:17;21.30;84.40
21108;DHT22;10712;52.944;9.098;2023-08-20T08:48:45;21.40;84.50
21108;DHT22;10712;52.944;9.098;2023-08-20T08:51:13;21.50;84.70
21108;DHT22;10712;52.944;9.098;2023-08-20T08:53:39;21.60;84.40
21108;DHT22;10712;52.944;9.098;2023-08-20T08:56:07;21.70;83.70
21108;DHT22;10712;52.944;9.098;2023-08-20T08:58:33;21.80;83.80
21108;DHT22;10712;52.944;9.098;2023-08-20T09:00:59;21.90;83.20
21108;DHT22;10712;52.944;9.098;2023-08-20T09:03:26;22.00;82.90
21108;DHT22;10712;52.944;9.098;2023-08-20T09:05:58;22.00;83.20
21108;DHT22;10712;52.944;9.098;2023-08-20T09:08:28;22.00;82.10
21108;DHT22;10712;52.944;9.098;2023-08-20T09:10:59;22.10;82.10
21108;DHT22;10712;52.944;9.098;2023-08-20T09:13:36;22.20;82.50
21108;DHT22;10712;52.944;9.098;2023-08-20T09:16:05;22.20;82.70
21108;DHT22;10712;52.944;9.098;2023-08-20T09:18:40;22.30;83.10
21108;DHT22;10712;52.944;9.098;2023-08-20T09:21:11;22.50;82.60
21108;DHT22;10712;52.944;9.098;2023-08-20T09:23:38;22.50;82.20
21108;DHT22;10712;52.944;9.098;2023-08-20T09:26:06;22.60;81.90
21108;DHT22;10712;52.944;9.098;2023-08-20T09:28:42;22.60;81.40
21108;DHT22;10712;52.944;9.098;2023-08-20T09:31:10;22.70;81.40
21108;DHT22;10712;52.944;9.098;2023-08-20T09:33:36;22.70;80.80
21108;DHT22;10712;52.944;9.098;2023-08-20T09:36:03;22.70;80.60
21108;DHT22;10712;52.944;9.098;2023-08-20T09:38:30;22.80;80.80
21108;DHT22;10712;52.944;9.098;2023-08-20T09:41:04;22.80;80.80
21108;DHT22;10712;52.944;9.098;2023-08-20T09:43:37;22.90;80.70
21108;DHT22;10712;52.944;9.098;2023-08-20T09:46:05;22.90;80.50
21108;DHT22;10712;52.944;9.098;2023-08-20T09:48:35;22.90;80.10
21108;DHT22;10712;52.944;9.098;2023-08-20T09:51:08;23.00;80.50
21108;DHT22;10712;52.944;9.098;2023-08-20T09:53:48;23.00;80.20
21108;DHT22;10712;52.944;9.098;2023-08-20T09:56:28;23.10;80.10
21108;DHT22;10712;52.944;9.098;2023-08-20T09:58:57;23.20;78.70
21108;DHT22;10712;52.944;9.098;2023-08-20T10:01:24;23.30;77.90
21108;DHT22;10712;52.944;9.098;2023-08-20T10:03:51;23.30;78.20
21108;DHT22;10712;52.944;9.098;2023-08-20T10:06:18;23.30;78.20
21108;DHT22;10712;52.944;9.098;2023-08-20T10:08:46;23.40;78.20
21108;DHT22;10712;52.944;9.098;2023-08-20T10:11:12;23.50;78.40
21108;DHT22;10712;52.944;9.098;2023-08-20T10:13:39;23.60;77.80
21108;DHT22;10712;52.944;9.098;2023-08-20T10:16:05;23.60;77.50
21108;DHT22;10712;52.944;9.098;2023-08-20T10:18:31;23.70;77.50
21108;DHT22;10712;52.944;9.098;2023-08-20T10:21:01;23.80;77.10
21108;DHT22;10712;52.944;9.098;2023-08-20T10:23:27;23.90;77.10
21108;DHT22;10712;52.944;9.098;2023-08-20T10:25:54;24.00;77.20
21108;DHT22;10712;52.944;9.098;2023-08-20T10:28:27;24.00;77.60
21108;DHT22;10712;52.944;9.098;2023-08-20T10:31:12;24.10;77.40
21108;DHT22;10712;52.944;9.098;2023-08-20T10:36:20;24.10;77.20
21108;DHT22;10712;52.944;9.098;2023-08-20T10:38:57;24.20;76.40
21108;DHT22;10712;52.944;9.098;2023-08-20T10:41:30;24.20;75.90
21108;DHT22;10712;52.944;9.098;2023-08-20T10:43:59;24.20;75.30
21108;DHT22;10712;52.944;9.098;2023-08-20T10:46:28;24.10;75.30
21108;DHT22;10712;52.944;9.098;2023-08-20T10:49:02;24.10;75.40
21108;DHT22;10712;52.944;9.098;2023-08-20T10:51:36;24.10;75.20
21108;DHT22;10712;52.944;9.098;2023-08-20T10:59:28;24.30;75.90
21108;DHT22;10712;52.944;9.098;2023-08-20T11:01:59;24.30;76.10
21108;DHT22;10712;52.944;9.098;2023-08-20T11:04:31;24.40;75.60
21108;DHT22;10712;52.944;9.098;2023-08-20T11:07:01;24.50;75.20
21108;DHT22;10712;52.944;9.098;2023-08-20T11:09:29;24.60;73.50
21108;DHT22;10712;52.944;9.098;2023-08-20T11:11:56;24.60;73.30
21108;DHT22;10712;52.944;9.098;2023-08-20T11:14:22;24.70;73.30
21108;DHT22;10712;52.944;9.098;2023-08-20T11:16:49;24.70;73.40
21108;DHT22;10712;52.944;9.098;2023-08-20T11:19:20;24.70;73.40
21108;DHT22;10712;52.944;9.098;2023-08-20T11:21:48;24.70;73.40
21108;DHT22;10712;52.944;9.098;2023-08-20T11:24:13;24.70;73.30
21108;DHT22;10712;52.944;9.098;2023-08-20T11:26:40;24.60;73.10
21108;DHT22;10712;52.944;9.098;2023-08-20T11:31:36;24.50;73.60
21108;DHT22;10712;52.944;9.098;2023-08-20T11:34:02;24.50;74.80
21108;DHT22;10712;52.944;9.098;2023-08-20T11:36:29;24.40;75.30
21108;DHT22;10712;52.944;9.098;2023-08-20T11:38:55;24.40;75.50
21108;DHT22;10712;52.944;9.098;2023-08-20T11:41:22;24.30;74.70
21108;DHT22;10712;52.944;9.098;2023-08-20T11:43:49;24.20;74.70
21108;DHT22;10712;52.944;9.098;2023-08-20T11:46:19;24.10;75.00
21108;DHT22;10712;52.944;9.098;2023-08-20T11:49:01;24.20;75.00
21108;DHT22;10712;52.944;9.098;2023-08-20T11:51:42;24.20;75.10
21108;DHT22;10712;52.944;9.098;2023-08-20T11:54:13;24.30;74.60
21108;DHT22;10712;52.944;9.098;2023-08-20T11:56:49;24.40;74.50
21108;DHT22;10712;52.944;9.098;2023-08-20T11:59:19;24.60;74.40
21108;DHT22;10712;52.944;9.098;2023-08-20T12:01:54;24.70;74.20
21108;DHT22;10712;52.944;9.098;2023-08-20T12:04:25;24.80;74.00
21108;DHT22;10712;52.944;9.098;2023-08-20T12:07:04;24.90;72.10
21108;DHT22;10712;52.944;9.098;2023-08-20T12:09:31;25.00;71.00
21108;DHT22;10712;52.944;9.098;2023-08-20T12:11:58;25.10;71.20
21108;DHT22;10712;52.944;9.098;2023-08-20T12:14:24;25.20;71.80
21108;DHT22;10712;52.944;9.098;2023-08-20T12:16:51;25.20;72.50
21108;DHT22;10712;52.944;9.098;2023-08-20T12:19:18;25.30;72.40
21108;DHT22;10712;52.944;9.098;2023-08-20T12:21:45;25.30;72.80
21108;DHT22;10712;52.944;9.098;2023-08-20T12:24:12;25.30;72.90
21108;DHT22;10712;52.944;9.098;2023-08-20T12:26:38;25.30;72.90
21108;DHT22;10712;52.944;9.098;2023-08-20T12:29:05;25.30;73.30
21108;DHT22;10712;52.944;9.098;2023-08-20T12:31:32;25.30;72.20
21108;DHT22;10712;52.944;9.098;2023-08-20T12:33:59;25.40;72.10
21108;DHT22;10712;52.944;9.098;2023-08-20T12:36:25;25.40;71.80
21108;DHT22;10712;52.944;9.098;2023-08-20T12:38:51;25.40;71.60
21108;DHT22;10712;52.944;9.098;2023-08-20T12:41:19;25.40;71.60
21108;DHT22;10712;52.944;9.098;2023-08-20T12:43:45;25.40;71.90
21108;DHT22;10712;52.944;9.098;2023-08-20T12:46:11;25.50;70.40
21108;DHT22;10712;52.944;9.098;2023-08-20T12:48:39;25.50;69.40
21108;DHT22;10712;52.944;9.098;2023-08-20T12:51:05;25.50;69.30
21108;DHT22;10712;52.944;9.098;2023-08-20T12:53:31;25.60;69.50
21108;DHT22;10712;52.944;9.098;2023-08-20T12:55:57;25.70;69.00
21108;DHT22;10712;52.944;9.098;2023-08-20T12:58:23;25.70;69.30
21108;DHT22;10712;52.944;9.098;2023-08-20T13:00:50;25.80;68.80
21108;DHT22;10712;52.944;9.098;2023-08-20T13:03:17;25.90;69.20
21108;DHT22;10712;52.944;9.098;2023-08-20T13:05:44;26.00;68.90
21108;DHT22;10712;52.944;9.098;2023-08-20T13:08:11;26.00;68.90
21108;DHT22;10712;52.944;9.098;2023-08-20T13:10:41;26.10;69.30
21108;DHT22;10712;52.944;9.098;2023-08-20T13:13:10;26.20;68.70
21108;DHT22;10712;52.944;9.098;2023-08-20T13:15:38;26.20;69.40
21108;DHT22;10712;52.944;9.098;2023-08-20T13:18:05;26.20;69.40
21108;DHT22;10712;52.944;9.098;2023-08-20T13:20:33;26.30;70.50
21108;DHT22;10712;52.944;9.098;2023-08-20T13:22:58;26.30;70.40
21108;DHT22;10712;52.944;9.098;2023-08-20T13:25:24;26.30;69.40
21108;DHT22;10712;52.944;9.098;2023-08-20T13:27:50;26.20;67.50
21108;DHT22;10712;52.944;9.098;2023-08-20T13:30:16;26.00;68.80
21108;DHT22;10712;52.944;9.098;2023-08-20T13:32:43;25.90;69.40
21108;DHT22;10712;52.944;9.098;2023-08-20T13:35:09;25.70;70.10
21108;DHT22;10712;52.944;9.098;2023-08-20T13:37:34;25.70;71.10
21108;DHT22;10712;52.944;9.098;2023-08-20T13:40:00;25.60;71.40
21108;DHT22;10712;52.944;9.098;2023-08-20T13:42:26;25.60;71.90
21108;DHT22;10712;52.944;9.098;2023-08-20T13:44:52;25.60;72.10
21108;DHT22;10712;52.944;9.098;2023-08-20T13:47:18;25.60;71.80
21108;DHT22;10712;52.944;9.098;2023-08-20T13:49:44;25.60;71.00
21108;DHT22;10712;52.944;9.098;2023-08-20T13:52:10;25.60;70.70
21108;DHT22;10712;52.944;9.098;2023-08-20T13:54:36;25.60;70.70
21108;DHT22;10712;52.944;9.098;2023-08-20T13:57:05;25.60;70.80
21108;DHT22;10712;52.944;9.098;2023-08-20T13:59:31;25.70;70.30
21108;DHT22;10712;52.944;9.098;2023-08-20T14:01:58;25.70;70.50
21108;DHT22;10712;52.944;9.098;2023-08-20T14:04:25;25.80;70.30
21108;DHT22;10712;52.944;9.098;2023-08-20T14:06:51;25.70;70.20
21108;DHT22;10712;52.944;9.098;2023-08-20T14:09:16;25.70;70.60
21108;DHT22;10712;52.944;9.098;2023-08-20T14:11:44;25.70;71.20
21108;DHT22;10712;52.944;9.098;2023-08-20T14:14:10;25.60;71.70
21108;DHT22;10712;52.944;9.098;2023-08-20T14:16:36;25.60;72.20
21108;DHT22;10712;52.944;9.098;2023-08-20T14:19:02;25.60;72.00
21108;DHT22;10712;52.944;9.098;2023-08-20T14:21:28;25.60;71.60
21108;DHT22;10712;52.944;9.098;2023-08-20T14:23:54;25.60;71.20
21108;DHT22;10712;52.944;9.098;2023-08-20T14:26:20;25.60;71.40
21108;DHT22;10712;52.944;9.098;2023-08-20T14:28:45;25.70;71.50
21108;DHT22;10712;52.944;9.098;2023-08-20T14:31:11;25.70;71.70
21108;DHT22;10712;52.944;9.098;2023-08-20T14:33:37;25.70;71.90
21108;DHT22;10712;52.944;9.098;2023-08-20T14:36:03;25.70;71.80
21108;DHT22;10712;52.944;9.098;2023-08-20T14:38:29;25.70;72.10
21108;DHT22;10712;52.944;9.098;2023-08-20T14:41:02;25.70;72.00
21108;DHT22;10712;52.944;9.098;2023-08-20T14:43:29;25.70;71.40
21108;DHT22;10712;52.944;9.098;2023-08-20T14:45:56;25.80;70.80
21108;DHT22;10712;52.944;9.098;2023-08-20T14:48:22;25.80;69.50
21108;DHT22;10712;52.944;9.098;2023-08-20T14:50:49;25.80;69.00
21108;DHT22;10712;52.944;9.098;2023-08-20T14:53:15;25.80;69.00
21108;DHT22;10712;52.944;9.098;2023-08-20T14:55:41;25.70;69.40
21108;DHT22;10712;52.944;9.098;2023-08-20T14:58:07;25.70;70.20
21108;DHT22;10712;52.944;9.098;2023-08-20T15:00:33;25.70;70.90
21108;DHT22;10712;52.944;9.098;2023-08-20T15:02:59;25.80;71.10
21108;DHT22;10712;52.944;9.098;2023-08-20T15:05:24;25.80;71.10
21108;DHT22;10712;52.944;9.098;2023-08-20T15:07:50;25.80;71.10
21108;DHT22;10712;52.944;9.098;2023-08-20T15:10:16;25.70;70.50
21108;DHT22;10712;52.944;9.098;2023-08-20T15:12:42;25.70;70.40
21108;DHT22;10712;52.944;9.098;2023-08-20T15:15:08;25.60;70.70
21108;DHT22;10712;52.944;9.098;2023-08-20T15:17:34;25.60;70.90
21108;DHT22;10712;52.944;9.098;2023-08-20T15:20:01;25.60;70.70
21108;DHT22;10712;52.944;9.098;2023-08-20T15:22:31;25.60;70.10
21108;DHT22;10712;52.944;9.098;2023-08-20T15:24:57;25.60;70.00
21108;DHT22;10712;52.944;9.098;2023-08-20T15:27:25;25.50;70.20
21108;DHT22;10712;52.944;9.098;2023-08-20T15:29:51;25.50;70.50
21108;DHT22;10712;52.944;9.098;2023-08-20T15:32:18;25.50;71.10
21108;DHT22;10712;52.944;9.098;2023-08-20T15:34:44;25.50;71.00
21108;DHT22;10712;52.944;9.098;2023-08-20T15:37:10;25.50;71.00
21108;DHT22;10712;52.944;9.098;2023-08-20T15:39:35;25.50;70.80
21108;DHT22;10712;52.944;9.098;2023-08-20T15:42:04;25.50;70.80
21108;DHT22;10712;52.944;9.098;2023-08-20T15:44:30;25.50;71.00
21108;DHT22;10712;52.944;9.098;2023-08-20T15:46:56;25.50;71.30
21108;DHT22;10712;52.944;9.098;2023-08-20T15:49:22;25.40;71.30
21108;DHT22;10712;52.944;9.098;2023-08-20T15:51:48;25.40;71.20